Terminal Aerodrome Forecast
Issued by NWS Sioux Falls, SD

Home | Current Version | Previous Version | Text Only | Print | Product List | Glossary On
Versions: 1 2 3 4 5 6 7 8 9 10 11 12 13 14 15
982
FTUS43 KFSD 211429 AAE
TAFHON
TAF AMD
KHON 211429Z 2114/2212 VRB03KT P6SM SCT003
     FM211500 07004KT P6SM FEW200
     FM220700 13004KT P6SM FEW250=

USA.gov is the U.S. government's official web portal to all federal, state and local government web resources and services.